Terminal Aerodrome Forecast
Issued by NWS Amarillo, TX

Home | Current Version | Previous Version | Text Only | Print | Product List | Glossary On
Versions: 1 2 3 4 5 6 7 8 9 10 11 12 13 14 15 16 17
000
FTUS44 KAMA 071504 AAB
TAFAMA
TAF AMD
KAMA 071504Z 0715/0812 17011KT P6SM OVC010
      TEMPO 0715/0717 OVC005
     FM071700 32015KT P6SM SCT300
     FM072000 02018G26KT P6SM SCT025 BKN050
     FM080300 03017G25KT P6SM BKN040
     FM080900 01012G18KT P6SM SCT040=

USA.gov is the U.S. government's official web portal to all federal, state and local government web resources and services.